sensor_id;sensor_type;location;lat;lon;timestamp;temperature;humidity
17425;DHT22;8830;50.978;5.058;2022-10-31T00:01:37;14.10;99.90
17425;DHT22;8830;50.978;5.058;2022-10-31T00:04:04;14.10;99.90
17425;DHT22;8830;50.978;5.058;2022-10-31T00:06:31;14.10;99.90
17425;DHT22;8830;50.978;5.058;2022-10-31T00:09:02;14.10;99.90
17425;DHT22;8830;50.978;5.058;2022-10-31T00:11:29;14.10;99.90
17425;DHT22;8830;50.978;5.058;2022-10-31T00:13:57;14.20;99.90
17425;DHT22;8830;50.978;5.058;2022-10-31T00:16:25;14.10;99.90
17425;DHT22;8830;50.978;5.058;2022-10-31T00:18:53;14.10;99.90
17425;DHT22;8830;50.978;5.058;2022-10-31T00:21:21;14.20;99.90
17425;DHT22;8830;50.978;5.058;2022-10-31T00:23:48;14.10;99.90
17425;DHT22;8830;50.978;5.058;2022-10-31T00:26:18;14.10;99.90
17425;DHT22;8830;50.978;5.058;2022-10-31T00:28:46;14.10;99.90
17425;DHT22;8830;50.978;5.058;2022-10-31T00:31:13;14.10;99.90
17425;DHT22;8830;50.978;5.058;2022-10-31T00:33:41;14.00;99.90
17425;DHT22;8830;50.978;5.058;2022-10-31T00:36:11;14.00;99.90
17425;DHT22;8830;50.978;5.058;2022-10-31T00:38:38;14.00;99.90
17425;DHT22;8830;50.978;5.058;2022-10-31T00:41:05;13.90;99.90
17425;DHT22;8830;50.978;5.058;2022-10-31T00:43:34;13.90;99.90
17425;DHT22;8830;50.978;5.058;2022-10-31T00:46:01;13.90;99.90
17425;DHT22;8830;50.978;5.058;2022-10-31T00:48:29;13.80;99.90
17425;DHT22;8830;50.978;5.058;2022-10-31T00:50:57;13.80;99.90
17425;DHT22;8830;50.978;5.058;2022-10-31T00:53:24;13.80;99.90
17425;DHT22;8830;50.978;5.058;2022-10-31T00:55:51;13.80;99.90
17425;DHT22;8830;50.978;5.058;2022-10-31T00:58:18;13.80;99.90
17425;DHT22;8830;50.978;5.058;2022-10-31T01:00:51;13.70;99.90
17425;DHT22;8830;50.978;5.058;2022-10-31T01:03:21;13.60;99.90
17425;DHT22;8830;50.978;5.058;2022-10-31T01:05:59;13.50;99.90
17425;DHT22;8830;50.978;5.058;2022-10-31T01:08:26;13.50;99.90
17425;DHT22;8830;50.978;5.058;2022-10-31T01:11:05;13.50;99.90
17425;DHT22;8830;50.978;5.058;2022-10-31T01:13:34;13.40;99.90
17425;DHT22;8830;50.978;5.058;2022-10-31T01:16:05;13.40;99.90
17425;DHT22;8830;50.978;5.058;2022-10-31T01:18:34;13.30;99.90
17425;DHT22;8830;50.978;5.058;2022-10-31T01:21:03;13.30;99.90
17425;DHT22;8830;50.978;5.058;2022-10-31T01:23:31;13.30;99.90
17425;DHT22;8830;50.978;5.058;2022-10-31T01:26:00;13.30;99.90
17425;DHT22;8830;50.978;5.058;2022-10-31T01:28:27;13.20;99.90
17425;DHT22;8830;50.978;5.058;2022-10-31T01:30:54;13.20;99.90
17425;DHT22;8830;50.978;5.058;2022-10-31T01:33:23;13.20;99.90
17425;DHT22;8830;50.978;5.058;2022-10-31T01:35:49;13.30;99.90
17425;DHT22;8830;50.978;5.058;2022-10-31T01:38:16;13.20;99.90
17425;DHT22;8830;50.978;5.058;2022-10-31T01:40:43;13.20;99.90
17425;DHT22;8830;50.978;5.058;2022-10-31T01:43:13;13.10;99.90
17425;DHT22;8830;50.978;5.058;2022-10-31T01:45:41;13.10;99.90
17425;DHT22;8830;50.978;5.058;2022-10-31T01:48:12;13.10;99.90
17425;DHT22;8830;50.978;5.058;2022-10-31T01:50:43;13.10;99.90
17425;DHT22;8830;50.978;5.058;2022-10-31T01:53:12;13.10;99.90
17425;DHT22;8830;50.978;5.058;2022-10-31T01:55:40;13.30;99.90
17425;DHT22;8830;50.978;5.058;2022-10-31T01:58:11;13.10;99.90
17425;DHT22;8830;50.978;5.058;2022-10-31T02:00:39;13.10;99.90
17425;DHT22;8830;50.978;5.058;2022-10-31T02:03:07;13.00;99.90
17425;DHT22;8830;50.978;5.058;2022-10-31T02:05:34;13.40;99.90
17425;DHT22;8830;50.978;5.058;2022-10-31T02:08:06;13.00;99.90
17425;DHT22;8830;50.978;5.058;2022-10-31T02:10:36;13.00;99.90
17425;DHT22;8830;50.978;5.058;2022-10-31T02:13:05;12.80;99.90
17425;DHT22;8830;50.978;5.058;2022-10-31T02:15:35;12.70;99.90
17425;DHT22;8830;50.978;5.058;2022-10-31T02:18:03;12.80;99.90
17425;DHT22;8830;50.978;5.058;2022-10-31T02:20:34;12.80;99.90
17425;DHT22;8830;50.978;5.058;2022-10-31T02:23:48;12.80;99.90
17425;DHT22;8830;50.978;5.058;2022-10-31T02:26:37;12.80;99.90
17425;DHT22;8830;50.978;5.058;2022-10-31T02:32:16;12.80;99.90
17425;DHT22;8830;50.978;5.058;2022-10-31T02:34:51;12.90;99.90
17425;DHT22;8830;50.978;5.058;2022-10-31T02:37:25;12.90;99.90
17425;DHT22;8830;50.978;5.058;2022-10-31T02:40:01;12.80;99.90
17425;DHT22;8830;50.978;5.058;2022-10-31T02:42:35;12.80;99.90
17425;DHT22;8830;50.978;5.058;2022-10-31T02:45:09;12.70;99.90
17425;DHT22;8830;50.978;5.058;2022-10-31T02:47:40;12.50;99.90
17425;DHT22;8830;50.978;5.058;2022-10-31T02:50:12;12.50;99.90
17425;DHT22;8830;50.978;5.058;2022-10-31T02:52:41;12.40;99.90
17425;DHT22;8830;50.978;5.058;2022-10-31T02:55:11;12.40;99.90
17425;DHT22;8830;50.978;5.058;2022-10-31T02:57:40;12.80;99.90
17425;DHT22;8830;50.978;5.058;2022-10-31T03:00:09;12.30;99.90
17425;DHT22;8830;50.978;5.058;2022-10-31T03:03:00;12.30;99.90
17425;DHT22;8830;50.978;5.058;2022-10-31T03:05:40;12.30;99.90
17425;DHT22;8830;50.978;5.058;2022-10-31T03:08:13;12.30;99.90
17425;DHT22;8830;50.978;5.058;2022-10-31T03:10:46;12.30;99.90
17425;DHT22;8830;50.978;5.058;2022-10-31T03:13:19;12.30;99.90
17425;DHT22;8830;50.978;5.058;2022-10-31T03:15:50;12.30;99.90
17425;DHT22;8830;50.978;5.058;2022-10-31T03:18:24;12.30;99.90
17425;DHT22;8830;50.978;5.058;2022-10-31T03:20:57;12.40;99.90
17425;DHT22;8830;50.978;5.058;2022-10-31T03:23:26;12.40;99.90
17425;DHT22;8830;50.978;5.058;2022-10-31T03:25:55;12.30;99.90
17425;DHT22;8830;50.978;5.058;2022-10-31T03:28:28;12.40;99.90
17425;DHT22;8830;50.978;5.058;2022-10-31T03:30:57;12.40;99.90
17425;DHT22;8830;50.978;5.058;2022-10-31T03:33:28;12.60;99.90
17425;DHT22;8830;50.978;5.058;2022-10-31T03:36:02;12.50;99.90
17425;DHT22;8830;50.978;5.058;2022-10-31T03:38:32;12.50;99.90
17425;DHT22;8830;50.978;5.058;2022-10-31T03:41:03;12.60;99.90
17425;DHT22;8830;50.978;5.058;2022-10-31T03:43:35;12.60;99.90
17425;DHT22;8830;50.978;5.058;2022-10-31T03:46:04;12.70;99.90
17425;DHT22;8830;50.978;5.058;2022-10-31T03:48:33;12.70;99.90
17425;DHT22;8830;50.978;5.058;2022-10-31T03:51:06;12.70;99.90
17425;DHT22;8830;50.978;5.058;2022-10-31T03:53:38;12.70;99.90
17425;DHT22;8830;50.978;5.058;2022-10-31T03:56:11;12.70;99.90
17425;DHT22;8830;50.978;5.058;2022-10-31T03:58:43;12.70;99.90
17425;DHT22;8830;50.978;5.058;2022-10-31T04:01:15;12.70;99.90
17425;DHT22;8830;50.978;5.058;2022-10-31T04:03:45;12.70;99.90
17425;DHT22;8830;50.978;5.058;2022-10-31T04:06:13;12.80;99.90
17425;DHT22;8830;50.978;5.058;2022-10-31T04:08:45;12.80;99.90
17425;DHT22;8830;50.978;5.058;2022-10-31T04:11:17;12.80;99.90
17425;DHT22;8830;50.978;5.058;2022-10-31T04:13:46;12.80;99.90
17425;DHT22;8830;50.978;5.058;2022-10-31T04:16:15;12.80;99.90
17425;DHT22;8830;50.978;5.058;2022-10-31T04:18:45;12.80;99.90
17425;DHT22;8830;50.978;5.058;2022-10-31T04:21:13;12.80;99.90
17425;DHT22;8830;50.978;5.058;2022-10-31T04:23:40;12.70;99.90
17425;DHT22;8830;50.978;5.058;2022-10-31T04:26:08;12.70;99.90
17425;DHT22;8830;50.978;5.058;2022-10-31T04:28:37;12.60;99.90
17425;DHT22;8830;50.978;5.058;2022-10-31T04:31:04;12.50;99.90
17425;DHT22;8830;50.978;5.058;2022-10-31T04:33:31;12.40;99.90
17425;DHT22;8830;50.978;5.058;2022-10-31T04:36:00;12.40;99.90
17425;DHT22;8830;50.978;5.058;2022-10-31T04:38:27;12.30;99.90
17425;DHT22;8830;50.978;5.058;2022-10-31T04:40:54;12.40;99.90
17425;DHT22;8830;50.978;5.058;2022-10-31T04:43:21;12.70;99.90
17425;DHT22;8830;50.978;5.058;2022-10-31T04:45:48;12.30;99.90
17425;DHT22;8830;50.978;5.058;2022-10-31T04:48:15;12.20;99.90
17425;DHT22;8830;50.978;5.058;2022-10-31T04:50:43;12.20;99.90
17425;DHT22;8830;50.978;5.058;2022-10-31T04:53:12;12.20;99.90
17425;DHT22;8830;50.978;5.058;2022-10-31T04:55:40;12.10;99.90
17425;DHT22;8830;50.978;5.058;2022-10-31T04:58:07;12.10;99.90
17425;DHT22;8830;50.978;5.058;2022-10-31T05:00:36;12.10;99.90
17425;DHT22;8830;50.978;5.058;2022-10-31T05:03:04;12.10;99.90
17425;DHT22;8830;50.978;5.058;2022-10-31T05:05:31;12.10;99.90
17425;DHT22;8830;50.978;5.058;2022-10-31T05:07:58;12.00;99.90
17425;DHT22;8830;50.978;5.058;2022-10-31T05:10:28;12.00;99.90
17425;DHT22;8830;50.978;5.058;2022-10-31T05:12:57;13.40;99.90
17425;DHT22;8830;50.978;5.058;2022-10-31T05:15:26;12.00;99.90
17425;DHT22;8830;50.978;5.058;2022-10-31T05:17:54;12.00;99.90
17425;DHT22;8830;50.978;5.058;2022-10-31T05:20:22;12.00;99.90
17425;DHT22;8830;50.978;5.058;2022-10-31T05:22:52;12.00;99.90
17425;DHT22;8830;50.978;5.058;2022-10-31T05:25:21;11.90;99.90
17425;DHT22;8830;50.978;5.058;2022-10-31T05:27:52;12.00;99.90
17425;DHT22;8830;50.978;5.058;2022-10-31T05:30:22;12.00;99.90
17425;DHT22;8830;50.978;5.058;2022-10-31T05:32:50;11.90;99.90
17425;DHT22;8830;50.978;5.058;2022-10-31T05:35:20;11.90;99.90
17425;DHT22;8830;50.978;5.058;2022-10-31T05:37:49;12.10;99.90
17425;DHT22;8830;50.978;5.058;2022-10-31T05:40:17;12.00;99.90
17425;DHT22;8830;50.978;5.058;2022-10-31T05:42:45;12.00;99.90
17425;DHT22;8830;50.978;5.058;2022-10-31T05:45:16;12.00;99.90
17425;DHT22;8830;50.978;5.058;2022-10-31T05:47:50;12.00;99.90
17425;DHT22;8830;50.978;5.058;2022-10-31T05:50:17;12.00;99.90
17425;DHT22;8830;50.978;5.058;2022-10-31T05:52:44;12.20;99.90
17425;DHT22;8830;50.978;5.058;2022-10-31T05:55:13;12.10;99.90
17425;DHT22;8830;50.978;5.058;2022-10-31T05:57:40;12.00;99.90
17425;DHT22;8830;50.978;5.058;2022-10-31T06:00:09;12.10;99.90
17425;DHT22;8830;50.978;5.058;2022-10-31T06:02:37;12.10;99.90
17425;DHT22;8830;50.978;5.058;2022-10-31T06:05:05;12.10;99.90
17425;DHT22;8830;50.978;5.058;2022-10-31T06:07:32;12.00;99.90
17425;DHT22;8830;50.978;5.058;2022-10-31T06:10:02;12.00;99.90
17425;DHT22;8830;50.978;5.058;2022-10-31T06:12:30;12.10;99.90
17425;DHT22;8830;50.978;5.058;2022-10-31T06:14:57;12.10;99.90
17425;DHT22;8830;50.978;5.058;2022-10-31T06:17:24;12.10;99.90
17425;DHT22;8830;50.978;5.058;2022-10-31T06:19:53;12.00;99.90
17425;DHT22;8830;50.978;5.058;2022-10-31T06:22:20;12.10;99.90
17425;DHT22;8830;50.978;5.058;2022-10-31T06:24:48;12.00;99.90
17425;DHT22;8830;50.978;5.058;2022-10-31T06:27:14;12.00;99.90
17425;DHT22;8830;50.978;5.058;2022-10-31T06:29:42;12.30;99.90
17425;DHT22;8830;50.978;5.058;2022-10-31T06:32:12;11.90;99.90
17425;DHT22;8830;50.978;5.058;2022-10-31T06:34:39;12.00;99.90
17425;DHT22;8830;50.978;5.058;2022-10-31T06:37:09;12.00;99.90
17425;DHT22;8830;50.978;5.058;2022-10-31T06:39:36;12.00;99.90
17425;DHT22;8830;50.978;5.058;2022-10-31T06:42:04;12.00;99.90
17425;DHT22;8830;50.978;5.058;2022-10-31T06:44:32;12.10;99.90
17425;DHT22;8830;50.978;5.058;2022-10-31T06:46:59;12.10;99.90
17425;DHT22;8830;50.978;5.058;2022-10-31T06:49:26;12.10;99.90
17425;DHT22;8830;50.978;5.058;2022-10-31T06:51:53;12.10;99.90
17425;DHT22;8830;50.978;5.058;2022-10-31T06:54:22;12.10;99.90
17425;DHT22;8830;50.978;5.058;2022-10-31T06:56:49;12.10;99.90
17425;DHT22;8830;50.978;5.058;2022-10-31T06:59:17;12.10;99.90
17425;DHT22;8830;50.978;5.058;2022-10-31T07:01:45;12.10;99.90
17425;DHT22;8830;50.978;5.058;2022-10-31T07:04:12;12.10;99.90
17425;DHT22;8830;50.978;5.058;2022-10-31T07:06:39;12.10;99.90
17425;DHT22;8830;50.978;5.058;2022-10-31T07:09:06;12.10;99.90
17425;DHT22;8830;50.978;5.058;2022-10-31T07:11:35;12.10;99.90
17425;DHT22;8830;50.978;5.058;2022-10-31T07:14:02;13.10;99.90
17425;DHT22;8830;50.978;5.058;2022-10-31T07:16:29;12.20;99.90
17425;DHT22;8830;50.978;5.058;2022-10-31T07:18:57;12.20;99.90
17425;DHT22;8830;50.978;5.058;2022-10-31T07:21:26;12.30;99.90
17425;DHT22;8830;50.978;5.058;2022-10-31T07:23:55;12.20;99.90
17425;DHT22;8830;50.978;5.058;2022-10-31T07:26:22;12.40;99.90
17425;DHT22;8830;50.978;5.058;2022-10-31T07:28:53;12.40;99.90
17425;DHT22;8830;50.978;5.058;2022-10-31T07:31:20;10.90;99.90
17425;DHT22;8830;50.978;5.058;2022-10-31T07:36:15;12.60;99.90
17425;DHT22;8830;50.978;5.058;2022-10-31T07:38:42;12.70;99.90
17425;DHT22;8830;50.978;5.058;2022-10-31T07:41:09;12.90;99.90
17425;DHT22;8830;50.978;5.058;2022-10-31T07:43:36;12.90;99.90
17425;DHT22;8830;50.978;5.058;2022-10-31T07:46:05;12.90;99.90
17425;DHT22;8830;50.978;5.058;2022-10-31T07:48:32;13.00;99.90
17425;DHT22;8830;50.978;5.058;2022-10-31T07:50:59;16.40;99.90
17425;DHT22;8830;50.978;5.058;2022-10-31T07:53:26;13.20;99.90
17425;DHT22;8830;50.978;5.058;2022-10-31T07:55:54;13.10;99.90
17425;DHT22;8830;50.978;5.058;2022-10-31T07:58:21;13.10;99.90
17425;DHT22;8830;50.978;5.058;2022-10-31T08:00:49;13.20;99.90
17425;DHT22;8830;50.978;5.058;2022-10-31T08:18:42;13.90;99.90
17425;DHT22;8830;50.978;5.058;2022-10-31T08:21:20;14.00;99.90
17425;DHT22;8830;50.978;5.058;2022-10-31T08:24:01;14.20;99.90
17425;DHT22;8830;50.978;5.058;2022-10-31T08:26:54;14.30;99.90
17425;DHT22;8830;50.978;5.058;2022-10-31T08:43:26;14.30;99.90
17425;DHT22;8830;50.978;5.058;2022-10-31T08:46:04;14.40;99.90
17425;DHT22;8830;50.978;5.058;2022-10-31T08:48:35;14.30;99.90
17425;DHT22;8830;50.978;5.058;2022-10-31T08:51:09;14.30;99.90
17425;DHT22;8830;50.978;5.058;2022-10-31T08:53:57;14.30;99.90
17425;DHT22;8830;50.978;5.058;2022-10-31T08:56:35;14.40;99.90
17425;DHT22;8830;50.978;5.058;2022-10-31T08:59:17;12.80;99.90
17425;DHT22;8830;50.978;5.058;2022-10-31T09:01:51;14.40;99.90
17425;DHT22;8830;50.978;5.058;2022-10-31T09:04:18;14.40;99.90
17425;DHT22;8830;50.978;5.058;2022-10-31T09:06:52;14.70;99.90
17425;DHT22;8830;50.978;5.058;2022-10-31T09:09:22;14.80;99.90
17425;DHT22;8830;50.978;5.058;2022-10-31T09:11:56;14.90;99.90
17425;DHT22;8830;50.978;5.058;2022-10-31T09:14:34;15.30;99.90
17425;DHT22;8830;50.978;5.058;2022-10-31T09:17:09;15.50;99.90
17425;DHT22;8830;50.978;5.058;2022-10-31T09:19:47;15.70;99.90
17425;DHT22;8830;50.978;5.058;2022-10-31T09:22:37;15.70;99.90
17425;DHT22;8830;50.978;5.058;2022-10-31T09:31:39;15.60;99.90
17425;DHT22;8830;50.978;5.058;2022-10-31T09:34:12;15.60;99.90
17425;DHT22;8830;50.978;5.058;2022-10-31T09:36:46;15.70;99.90
17425;DHT22;8830;50.978;5.058;2022-10-31T09:39:22;15.60;99.90
17425;DHT22;8830;50.978;5.058;2022-10-31T09:42:03;15.60;99.90
17425;DHT22;8830;50.978;5.058;2022-10-31T09:44:51;15.60;99.90
17425;DHT22;8830;50.978;5.058;2022-10-31T09:47:46;15.50;99.90
17425;DHT22;8830;50.978;5.058;2022-10-31T09:50:39;15.50;99.90
17425;DHT22;8830;50.978;5.058;2022-10-31T09:56:18;15.70;99.90
17425;DHT22;8830;50.978;5.058;2022-10-31T09:58:55;15.70;99.90
17425;DHT22;8830;50.978;5.058;2022-10-31T10:01:43;15.80;99.90
17425;DHT22;8830;50.978;5.058;2022-10-31T10:04:44;15.80;99.90
17425;DHT22;8830;50.978;5.058;2022-10-31T10:07:32;15.90;99.90
17425;DHT22;8830;50.978;5.058;2022-10-31T10:10:15;15.90;99.90
17425;DHT22;8830;50.978;5.058;2022-10-31T10:13:12;15.90;99.90
17425;DHT22;8830;50.978;5.058;2022-10-31T10:19:53;16.00;99.90
17425;DHT22;8830;50.978;5.058;2022-10-31T10:22:40;16.00;99.90
17425;DHT22;8830;50.978;5.058;2022-10-31T10:25:23;16.00;99.90
17425;DHT22;8830;50.978;5.058;2022-10-31T10:28:08;16.20;99.90
17425;DHT22;8830;50.978;5.058;2022-10-31T10:30:43;16.10;99.90
17425;DHT22;8830;50.978;5.058;2022-10-31T10:33:20;16.30;99.90
17425;DHT22;8830;50.978;5.058;2022-10-31T10:36:05;16.30;99.90
17425;DHT22;8830;50.978;5.058;2022-10-31T10:39:14;16.30;99.90
17425;DHT22;8830;50.978;5.058;2022-10-31T10:41:50;16.30;99.90
17425;DHT22;8830;50.978;5.058;2022-10-31T10:44:42;16.40;99.90
17425;DHT22;8830;50.978;5.058;2022-10-31T10:47:35;16.40;99.90
17425;DHT22;8830;50.978;5.058;2022-10-31T10:50:21;16.50;99.90
17425;DHT22;8830;50.978;5.058;2022-10-31T10:53:11;16.50;99.90
17425;DHT22;8830;50.978;5.058;2022-10-31T10:56:00;16.50;99.90
17425;DHT22;8830;50.978;5.058;2022-10-31T10:58:45;16.70;99.90
17425;DHT22;8830;50.978;5.058;2022-10-31T11:01:14;16.70;99.90
17425;DHT22;8830;50.978;5.058;2022-10-31T11:03:56;16.80;99.90
17425;DHT22;8830;50.978;5.058;2022-10-31T11:07:13;16.80;99.90
17425;DHT22;8830;50.978;5.058;2022-10-31T11:10:16;16.70;99.90
17425;DHT22;8830;50.978;5.058;2022-10-31T11:13:14;16.70;99.90
17425;DHT22;8830;50.978;5.058;2022-10-31T11:16:08;16.80;99.90
17425;DHT22;8830;50.978;5.058;2022-10-31T11:24:41;17.00;99.90
17425;DHT22;8830;50.978;5.058;2022-10-31T11:27:22;17.10;99.90
17425;DHT22;8830;50.978;5.058;2022-10-31T11:30:13;17.20;99.90
17425;DHT22;8830;50.978;5.058;2022-10-31T11:33:02;17.20;99.90
17425;DHT22;8830;50.978;5.058;2022-10-31T11:35:59;17.20;99.90
17425;DHT22;8830;50.978;5.058;2022-10-31T11:38:41;17.40;99.90
17425;DHT22;8830;50.978;5.058;2022-10-31T11:41:23;17.40;99.90
17425;DHT22;8830;50.978;5.058;2022-10-31T11:44:27;17.50;99.90
17425;DHT22;8830;50.978;5.058;2022-10-31T11:47:04;17.60;99.90
17425;DHT22;8830;50.978;5.058;2022-10-31T11:49:42;17.70;99.90
17425;DHT22;8830;50.978;5.058;2022-10-31T11:52:15;17.70;99.90
17425;DHT22;8830;50.978;5.058;2022-10-31T11:54:48;17.70;99.90
17425;DHT22;8830;50.978;5.058;2022-10-31T11:57:24;17.90;99.90
17425;DHT22;8830;50.978;5.058;2022-10-31T11:59:55;18.00;99.90
17425;DHT22;8830;50.978;5.058;2022-10-31T12:02:24;18.20;99.90
17425;DHT22;8830;50.978;5.058;2022-10-31T12:05:01;18.20;99.90
17425;DHT22;8830;50.978;5.058;2022-10-31T12:07:29;18.20;99.90
17425;DHT22;8830;50.978;5.058;2022-10-31T12:09:58;18.20;99.90
17425;DHT22;8830;50.978;5.058;2022-10-31T12:12:38;18.20;99.90
17425;DHT22;8830;50.978;5.058;2022-10-31T12:15:28;18.30;99.90
17425;DHT22;8830;50.978;5.058;2022-10-31T12:18:04;18.20;99.90
17425;DHT22;8830;50.978;5.058;2022-10-31T12:20:39;18.30;99.90
17425;DHT22;8830;50.978;5.058;2022-10-31T12:23:19;18.30;99.90
17425;DHT22;8830;50.978;5.058;2022-10-31T12:25:56;18.30;99.90
17425;DHT22;8830;50.978;5.058;2022-10-31T12:28:52;18.20;99.90
17425;DHT22;8830;50.978;5.058;2022-10-31T12:31:34;18.20;99.90
17425;DHT22;8830;50.978;5.058;2022-10-31T12:34:36;18.40;99.90
17425;DHT22;8830;50.978;5.058;2022-10-31T12:37:15;18.40;99.90
17425;DHT22;8830;50.978;5.058;2022-10-31T12:43:23;18.50;99.90
17425;DHT22;8830;50.978;5.058;2022-10-31T12:45:57;18.40;99.90
17425;DHT22;8830;50.978;5.058;2022-10-31T12:48:47;18.50;99.90
17425;DHT22;8830;50.978;5.058;2022-10-31T12:51:24;18.50;99.90
17425;DHT22;8830;50.978;5.058;2022-10-31T12:54:09;18.40;99.90
17425;DHT22;8830;50.978;5.058;2022-10-31T12:56:47;18.40;99.90
17425;DHT22;8830;50.978;5.058;2022-10-31T12:59:20;18.40;99.90
17425;DHT22;8830;50.978;5.058;2022-10-31T13:01:51;18.50;99.90
17425;DHT22;8830;50.978;5.058;2022-10-31T13:04:30;18.50;99.90
17425;DHT22;8830;50.978;5.058;2022-10-31T13:07:04;18.50;99.90
17425;DHT22;8830;50.978;5.058;2022-10-31T13:09:36;18.30;99.90
17425;DHT22;8830;50.978;5.058;2022-10-31T13:12:09;18.30;99.90
17425;DHT22;8830;50.978;5.058;2022-10-31T13:14:39;18.30;99.90
17425;DHT22;8830;50.978;5.058;2022-10-31T13:17:15;18.20;99.90
17425;DHT22;8830;50.978;5.058;2022-10-31T13:19:47;18.20;99.90
17425;DHT22;8830;50.978;5.058;2022-10-31T13:22:17;18.20;99.90
17425;DHT22;8830;50.978;5.058;2022-10-31T13:24:53;18.20;99.90
17425;DHT22;8830;50.978;5.058;2022-10-31T13:27:24;18.20;99.90
17425;DHT22;8830;50.978;5.058;2022-10-31T13:29:59;18.30;99.90
17425;DHT22;8830;50.978;5.058;2022-10-31T13:32:37;18.30;99.90
17425;DHT22;8830;50.978;5.058;2022-10-31T13:35:14;18.30;99.90
17425;DHT22;8830;50.978;5.058;2022-10-31T13:37:46;18.40;99.90
17425;DHT22;8830;50.978;5.058;2022-10-31T13:40:24;18.30;99.90
17425;DHT22;8830;50.978;5.058;2022-10-31T13:43:02;19.00;99.90
17425;DHT22;8830;50.978;5.058;2022-10-31T13:45:32;18.50;99.90
17425;DHT22;8830;50.978;5.058;2022-10-31T13:48:18;18.50;99.90
17425;DHT22;8830;50.978;5.058;2022-10-31T13:50:57;18.60;99.90
17425;DHT22;8830;50.978;5.058;2022-10-31T13:53:37;18.70;99.90
17425;DHT22;8830;50.978;5.058;2022-10-31T13:56:16;18.70;99.90
17425;DHT22;8830;50.978;5.058;2022-10-31T13:58:58;18.70;99.90
17425;DHT22;8830;50.978;5.058;2022-10-31T14:01:27;18.60;99.90
17425;DHT22;8830;50.978;5.058;2022-10-31T14:04:04;18.60;99.90
17425;DHT22;8830;50.978;5.058;2022-10-31T14:06:41;18.50;99.90
17425;DHT22;8830;50.978;5.058;2022-10-31T14:09:30;18.50;99.90
17425;DHT22;8830;50.978;5.058;2022-10-31T14:19:14;18.40;99.90
17425;DHT22;8830;50.978;5.058;2022-10-31T14:35:12;18.30;99.90
17425;DHT22;8830;50.978;5.058;2022-10-31T16:37:26;16.80;99.90
17425;DHT22;8830;50.978;5.058;2022-10-31T16:43:44;16.80;99.90
17425;DHT22;8830;50.978;5.058;2022-10-31T17:46:42;16.20;99.90
17425;DHT22;8830;50.978;5.058;2022-10-31T18:34:27;15.60;99.90
17425;DHT22;8830;50.978;5.058;2022-10-31T18:41:03;15.40;99.90
17425;DHT22;8830;50.978;5.058;2022-10-31T18:58:11;15.20;99.90
17425;DHT22;8830;50.978;5.058;2022-10-31T19:01:29;15.20;99.90
17425;DHT22;8830;50.978;5.058;2022-10-31T19:04:48;15.20;99.90
17425;DHT22;8830;50.978;5.058;2022-10-31T19:48:28;14.90;99.90
17425;DHT22;8830;50.978;5.058;2022-10-31T19:51:26;14.90;99.90
17425;DHT22;8830;50.978;5.058;2022-10-31T19:54:28;14.90;99.90
17425;DHT22;8830;50.978;5.058;2022-10-31T20:01:30;15.00;99.90
17425;DHT22;8830;50.978;5.058;2022-10-31T20:04:34;15.00;99.90
17425;DHT22;8830;50.978;5.058;2022-10-31T20:11:32;14.90;99.90
17425;DHT22;8830;50.978;5.058;2022-10-31T20:14:19;14.90;99.90
17425;DHT22;8830;50.978;5.058;2022-10-31T20:17:41;15.00;99.90
17425;DHT22;8830;50.978;5.058;2022-10-31T20:24:29;15.10;99.90
17425;DHT22;8830;50.978;5.058;2022-10-31T20:27:27;15.10;99.90
17425;DHT22;8830;50.978;5.058;2022-10-31T20:30:36;15.10;99.90
17425;DHT22;8830;50.978;5.058;2022-10-31T20:33:44;15.10;99.90
17425;DHT22;8830;50.978;5.058;2022-10-31T20:36:30;15.20;99.90
17425;DHT22;8830;50.978;5.058;2022-10-31T21:14:03;16.20;99.90
17425;DHT22;8830;50.978;5.058;2022-10-31T21:17:22;16.20;99.90
17425;DHT22;8830;50.978;5.058;2022-10-31T21:20:29;16.10;99.90
17425;DHT22;8830;50.978;5.058;2022-10-31T21:53:55;16.50;99.90
17425;DHT22;8830;50.978;5.058;2022-10-31T21:57:37;16.40;99.90
17425;DHT22;8830;50.978;5.058;2022-10-31T22:04:41;16.40;99.90
17425;DHT22;8830;50.978;5.058;2022-10-31T22:47:45;16.80;99.90
17425;DHT22;8830;50.978;5.058;2022-10-31T23:00:49;17.00;99.90
17425;DHT22;8830;50.978;5.058;2022-10-31T23:11:13;17.10;99.90
17425;DHT22;8830;50.978;5.058;2022-10-31T23:14:13;17.10;99.90
17425;DHT22;8830;50.978;5.058;2022-10-31T23:47:35;17.30;99.90
17425;DHT22;8830;50.978;5.058;2022-10-31T23:50:49;17.30;99.90
17425;DHT22;8830;50.978;5.058;2022-10-31T23:54:00;17.30;99.90
17425;DHT22;8830;50.978;5.058;2022-10-31T23:57:11;17.30;99.90
